Time;durP1;ratioP1;P1;durP2;ratioP2;P2;SDS_P1;SDS_P2;PMS_P1;PMS_P2;Temp;Humidity;BMP_temperature;BMP_pressure;BME280_temperature;BME280_humidity;BME280_pressure;Samples;Min_cycle;Max_cycle;Signal;HPM_P1;HPM_P2
2022/05/07 00:02:01;;;;;;;0.00;0.00;;;;;;;;;;4995315;28;98936;-73
2022/05/07 00:04:27;;;;;;;0.00;0.00;;;;;;;;;;4996102;28;99465;-73
2022/05/07 00:06:54;;;;;;;0.10;0.10;;;;;;;;;;4996637;28;99149;-73
2022/05/07 00:09:21;;;;;;;0.45;0.45;;;;;;;;;;4995509;28;98450;-73
2022/05/07 00:11:47;;;;;;;0.00;0.00;;;;;;;;;;4995492;28;99691;-73
2022/05/07 00:14:14;;;;;;;0.00;0.00;;;;;;;;;;4994653;28;100481;-73
2022/05/07 00:19:25;;;;;;;0.00;0.00;;;;;;;;;;4994441;28;99574;-73
2022/05/07 00:21:51;;;;;;;0.17;0.17;;;;;;;;;;4995539;28;98427;-73
2022/05/07 00:24:18;;;;;;;0.10;0.10;;;;;;;;;;4995073;28;99454;-73
2022/05/07 00:26:47;;;;;;;0.00;0.00;;;;;;;;;;4994718;28;98804;-73
2022/05/07 00:29:14;;;;;;;0.00;0.00;;;;;;;;;;4994625;28;99027;-73
2022/05/07 00:31:40;;;;;;;0.00;0.00;;;;;;;;;;4977531;28;100729;-73
2022/05/07 00:34:06;;;;;;;0.00;0.00;;;;;;;;;;4960516;28;102224;-73
2022/05/07 00:36:33;;;;;;;0.00;0.00;;;;;;;;;;4995172;28;98328;-73
2022/05/07 00:38:59;;;;;;;0.00;0.00;;;;;;;;;;4997695;28;99404;-73
2022/05/07 00:41:26;;;;;;;0.00;0.00;;;;;;;;;;4977179;28;98478;-73
2022/05/07 00:43:52;;;;;;;0.00;0.00;;;;;;;;;;4993696;28;102836;-73
2022/05/07 00:46:22;;;;;;;0.00;0.00;;;;;;;;;;4973778;28;102433;-73
2022/05/07 00:48:49;;;;;;;0.00;0.00;;;;;;;;;;4995050;28;98478;-72
2022/05/07 00:51:33;;;;;;;0.28;0.28;;;;;;;;;;4993549;28;101248;-72
2022/05/07 00:54:07;;;;;;;0.00;0.00;;;;;;;;;;4976566;28;101919;-72
2022/05/07 00:56:37;;;;;;;0.10;0.10;;;;;;;;;;4994062;28;97765;-72
2022/05/07 00:59:05;;;;;;;0.00;0.00;;;;;;;;;;4976790;28;101531;-72
2022/05/07 01:01:31;;;;;;;0.00;0.00;;;;;;;;;;4997400;28;99955;-72
2022/05/07 01:03:59;;;;;;;0.00;0.00;;;;;;;;;;4994484;28;99226;-72
2022/05/07 01:06:30;;;;;;;0.10;0.10;;;;;;;;;;4976295;28;102159;-72
2022/05/07 01:08:57;;;;;;;0.10;0.10;;;;;;;;;;4984564;28;100669;-72
2022/05/07 01:11:24;;;;;;;0.15;0.15;;;;;;;;;;4996418;28;101308;-73
2022/05/07 01:13:55;;;;;;;0.00;0.00;;;;;;;;;;4996278;28;101533;-72
2022/05/07 01:16:24;;;;;;;0.10;0.10;;;;;;;;;;4996463;28;98438;-72
2022/05/07 01:18:50;;;;;;;0.00;0.00;;;;;;;;;;5013357;28;100319;-72
2022/05/07 01:21:17;;;;;;;0.00;0.00;;;;;;;;;;5013196;28;101273;-72
2022/05/07 01:23:47;;;;;;;0.10;0.10;;;;;;;;;;4999847;28;98419;-73
2022/05/07 01:26:14;;;;;;;0.35;0.35;;;;;;;;;;4995701;28;102088;-73
2022/05/07 01:28:40;;;;;;;0.22;0.22;;;;;;;;;;5013758;28;99144;-73
2022/05/07 01:31:08;;;;;;;0.13;0.13;;;;;;;;;;5012943;28;102523;-73
2022/05/07 01:33:35;;;;;;;0.00;0.00;;;;;;;;;;4995962;28;102670;-72
2022/05/07 01:36:11;;;;;;;0.00;0.00;;;;;;;;;;4996251;28;98506;-73
2022/05/07 01:38:39;;;;;;;0.00;0.00;;;;;;;;;;5012471;28;101874;-73
2022/05/07 01:41:06;;;;;;;0.10;0.10;;;;;;;;;;4995828;28;102233;-72
2022/05/07 01:43:33;;;;;;;0.00;0.00;;;;;;;;;;4999480;28;98488;-73
2022/05/07 01:46:00;;;;;;;0.00;0.00;;;;;;;;;;4996448;28;101345;-73
2022/05/07 01:48:28;;;;;;;0.20;0.20;;;;;;;;;;4996025;28;98387;-73
2022/05/07 01:50:56;;;;;;;0.00;0.00;;;;;;;;;;5013708;28;100630;-73
2022/05/07 01:53:27;;;;;;;0.00;0.00;;;;;;;;;;5011660;28;102882;-73
2022/05/07 01:55:55;;;;;;;0.00;0.00;;;;;;;;;;4995900;28;98479;-73
2022/05/07 01:58:28;;;;;;;0.00;0.00;;;;;;;;;;5012563;28;100938;-72
2022/05/07 02:00:59;;;;;;;0.00;0.00;;;;;;;;;;4992616;28;101518;-73
2022/05/07 02:03:25;;;;;;;0.20;0.20;;;;;;;;;;5012226;28;98525;-73
2022/05/07 02:05:52;;;;;;;0.00;0.00;;;;;;;;;;4998752;28;102283;-72
2022/05/07 02:08:20;;;;;;;0.00;0.00;;;;;;;;;;5012163;28;98471;-72
2022/05/07 02:10:47;;;;;;;0.47;0.47;;;;;;;;;;4996369;28;100946;-73
2022/05/07 02:13:13;;;;;;;0.00;0.00;;;;;;;;;;4995275;28;101402;-73
2022/05/07 02:15:41;;;;;;;0.00;0.00;;;;;;;;;;5012492;28;98466;-73
2022/05/07 02:18:09;;;;;;;0.10;0.10;;;;;;;;;;4995254;28;101249;-73
2022/05/07 02:20:36;;;;;;;0.05;0.05;;;;;;;;;;4995134;28;102153;-72
2022/05/07 02:23:02;;;;;;;0.00;0.00;;;;;;;;;;4995100;28;99325;-73
2022/05/07 02:25:29;;;;;;;0.10;0.10;;;;;;;;;;4995617;28;102121;-72
2022/05/07 02:27:59;;;;;;;0.00;0.00;;;;;;;;;;4998519;28;101693;-73
2022/05/07 02:30:27;;;;;;;0.00;0.00;;;;;;;;;;5012106;28;101470;-72
2022/05/07 02:32:58;;;;;;;0.00;0.00;;;;;;;;;;4995245;28;101593;-73
2022/05/07 02:35:25;;;;;;;0.00;0.00;;;;;;;;;;4995451;28;97718;-73
2022/05/07 02:37:51;;;;;;;0.03;0.03;;;;;;;;;;4995417;28;101421;-73
2022/05/07 02:40:18;;;;;;;0.00;0.00;;;;;;;;;;4994937;28;102179;-73
2022/05/07 02:42:47;;;;;;;0.43;0.43;;;;;;;;;;4994856;28;99390;-73
2022/05/07 02:45:17;;;;;;;0.00;0.00;;;;;;;;;;5013281;28;100074;-73
2022/05/07 02:47:51;;;;;;;0.13;0.13;;;;;;;;;;4994572;28;102323;-73
2022/05/07 02:50:20;;;;;;;0.00;0.00;;;;;;;;;;4997924;28;98514;-72
2022/05/07 02:52:46;;;;;;;0.00;0.00;;;;;;;;;;4994839;28;100639;-73
2022/05/07 02:55:13;;;;;;;0.05;0.05;;;;;;;;;;4994971;28;98662;-72
2022/05/07 02:57:45;;;;;;;0.00;0.00;;;;;;;;;;4993314;28;101478;-73
2022/05/07 03:00:12;;;;;;;0.00;0.00;;;;;;;;;;5012978;28;98756;-73
2022/05/07 03:02:38;;;;;;;0.00;0.00;;;;;;;;;;5012537;28;98416;-74
2022/05/07 03:05:06;;;;;;;0.00;0.00;;;;;;;;;;5013151;28;99329;-73
2022/05/07 03:07:32;;;;;;;0.10;0.10;;;;;;;;;;5011948;28;100192;-73
2022/05/07 03:10:03;;;;;;;0.10;0.10;;;;;;;;;;5011788;28;98406;-73
2022/05/07 03:12:30;;;;;;;0.00;0.00;;;;;;;;;;4997921;28;100477;-73
2022/05/07 03:14:58;;;;;;;0.00;0.00;;;;;;;;;;5011331;28;98496;-73
2022/05/07 03:17:26;;;;;;;0.00;0.00;;;;;;;;;;5011587;28;101003;-73
2022/05/07 03:19:52;;;;;;;1.45;1.00;;;;;;;;;;4994481;28;100518;-73
2022/05/07 03:22:25;;;;;;;0.60;0.60;;;;;;;;;;4994590;28;98427;-73
2022/05/07 03:24:54;;;;;;;0.00;0.00;;;;;;;;;;4995266;28;101849;-73
2022/05/07 03:27:24;;;;;;;0.10;0.10;;;;;;;;;;4994201;28;102465;-74
2022/05/07 03:29:51;;;;;;;0.00;0.00;;;;;;;;;;5012343;28;100139;-73
2022/05/07 03:32:19;;;;;;;0.08;0.08;;;;;;;;;;4994318;28;101908;-73
2022/05/07 03:34:50;;;;;;;0.22;0.22;;;;;;;;;;4997809;28;101265;-72
2022/05/07 03:37:20;;;;;;;0.00;0.00;;;;;;;;;;4994638;28;101645;-72
2022/05/07 03:39:46;;;;;;;0.00;0.00;;;;;;;;;;5010920;28;101696;-71
2022/05/07 03:42:17;;;;;;;0.43;0.43;;;;;;;;;;5010547;28;98564;-72
2022/05/07 03:44:43;;;;;;;0.00;0.00;;;;;;;;;;5011272;28;101924;-71
2022/05/07 03:47:09;;;;;;;0.00;0.00;;;;;;;;;;5012184;28;99535;-72
2022/05/07 03:49:37;;;;;;;0.00;0.00;;;;;;;;;;5012907;28;97662;-72
2022/05/07 03:54:49;;;;;;;0.57;0.57;;;;;;;;;;4996760;28;100830;-72
2022/05/07 03:57:16;;;;;;;0.13;0.13;;;;;;;;;;4994031;28;100869;-72
2022/05/07 03:59:43;;;;;;;0.00;0.00;;;;;;;;;;4993969;28;101470;-72
2022/05/07 04:02:10;;;;;;;0.43;0.43;;;;;;;;;;5008847;28;98407;-73
2022/05/07 04:04:47;;;;;;;0.15;0.15;;;;;;;;;;5014376;28;101367;-73
2022/05/07 04:07:15;;;;;;;1.20;1.02;;;;;;;;;;4996813;28;101640;-73
2022/05/07 04:09:54;;;;;;;0.63;0.63;;;;;;;;;;5014151;28;98401;-73
2022/05/07 04:12:23;;;;;;;0.00;0.00;;;;;;;;;;4981096;28;102018;-73
2022/05/07 04:14:50;;;;;;;0.00;0.00;;;;;;;;;;5013904;28;101374;-73
2022/05/07 04:17:18;;;;;;;0.35;0.35;;;;;;;;;;5000482;28;98482;-73
2022/05/07 04:19:46;;;;;;;0.00;0.00;;;;;;;;;;4996261;28;102089;-73
2022/05/07 04:22:13;;;;;;;0.00;0.00;;;;;;;;;;4996987;28;99156;-73
2022/05/07 04:24:44;;;;;;;0.10;0.10;;;;;;;;;;5014189;28;102343;-73
2022/05/07 04:27:11;;;;;;;0.00;0.00;;;;;;;;;;4996905;28;102263;-73
2022/05/07 04:29:39;;;;;;;0.00;0.00;;;;;;;;;;5013970;28;98482;-73
2022/05/07 04:32:13;;;;;;;0.03;0.03;;;;;;;;;;4996731;28;102023;-74
2022/05/07 04:34:40;;;;;;;0.10;0.10;;;;;;;;;;5014806;28;99077;-73
2022/05/07 04:37:07;;;;;;;0.00;0.00;;;;;;;;;;4997207;28;98515;-73
2022/05/07 04:39:34;;;;;;;0.63;0.63;;;;;;;;;;5000511;28;101747;-73
2022/05/07 04:42:04;;;;;;;0.80;0.80;;;;;;;;;;4996897;28;98543;-73
2022/05/07 04:44:53;;;;;;;2.25;1.33;;;;;;;;;;5014216;28;100167;-73
2022/05/07 04:47:42;;;;;;;0.63;0.63;;;;;;;;;;5013482;28;101416;-73
2022/05/07 04:50:17;;;;;;;2.25;0.75;;;;;;;;;;4996897;28;98441;-73
2022/05/07 04:52:49;;;;;;;0.10;0.10;;;;;;;;;;4997012;28;101529;-73
2022/05/07 04:55:16;;;;;;;0.10;0.10;;;;;;;;;;5013665;28;100451;-73
2022/05/07 04:57:48;;;;;;;0.17;0.17;;;;;;;;;;5013513;28;98529;-72
2022/05/07 05:00:16;;;;;;;0.32;0.32;;;;;;;;;;4996696;28;100721;-73
2022/05/07 05:02:56;;;;;;;0.00;0.00;;;;;;;;;;5016166;28;102304;-73
2022/05/07 05:05:26;;;;;;;0.28;0.28;;;;;;;;;;4997745;28;97862;-73
2022/05/07 05:08:03;;;;;;;0.00;0.00;;;;;;;;;;4996311;28;101742;-73
2022/05/07 05:10:31;;;;;;;0.08;0.08;;;;;;;;;;4996703;28;98568;-73
2022/05/07 05:12:57;;;;;;;0.10;0.10;;;;;;;;;;5014062;28;99169;-73
2022/05/07 05:15:24;;;;;;;0.08;0.08;;;;;;;;;;5013836;28;99702;-73
2022/05/07 05:18:03;;;;;;;0.00;0.00;;;;;;;;;;5012913;28;98452;-74
2022/05/07 05:20:33;;;;;;;0.00;0.00;;;;;;;;;;4996435;28;101927;-73
2022/05/07 05:23:10;;;;;;;0.15;0.15;;;;;;;;;;4996079;28;102127;-74
2022/05/07 05:25:46;;;;;;;0.00;0.00;;;;;;;;;;5017797;28;98436;-73
2022/05/07 05:28:23;;;;;;;0.30;0.30;;;;;;;;;;4995929;28;101682;-73
2022/05/07 05:30:59;;;;;;;0.10;0.10;;;;;;;;;;5013433;28;97692;-73
2022/05/07 05:33:31;;;;;;;0.00;0.00;;;;;;;;;;4996277;28;101212;-73
2022/05/07 05:36:07;;;;;;;0.00;0.00;;;;;;;;;;5012689;28;101865;-73
2022/05/07 05:38:38;;;;;;;0.00;0.00;;;;;;;;;;4995760;28;99286;-73
2022/05/07 05:41:06;;;;;;;0.00;0.00;;;;;;;;;;4995731;28;102158;-74
2022/05/07 05:43:38;;;;;;;0.10;0.10;;;;;;;;;;4995456;28;102188;-74
2022/05/07 05:46:05;;;;;;;0.00;0.00;;;;;;;;;;4996093;28;98519;-74
2022/05/07 05:48:31;;;;;;;0.15;0.15;;;;;;;;;;4999065;28;101169;-74
2022/05/07 05:50:58;;;;;;;0.00;0.00;;;;;;;;;;5013882;28;98412;-74
2022/05/07 05:53:29;;;;;;;0.00;0.00;;;;;;;;;;4995779;28;102236;-73
2022/05/07 05:55:55;;;;;;;0.00;0.00;;;;;;;;;;5012459;28;101797;-73
2022/05/07 05:58:35;;;;;;;0.00;0.00;;;;;;;;;;4995890;28;98467;-73
2022/05/07 06:01:03;;;;;;;0.00;0.00;;;;;;;;;;4995800;28;101281;-73
2022/05/07 06:03:30;;;;;;;0.00;0.00;;;;;;;;;;4995010;28;102927;-73
2022/05/07 06:05:57;;;;;;;0.00;0.00;;;;;;;;;;5012576;28;98346;-74
2022/05/07 06:08:24;;;;;;;0.00;0.00;;;;;;;;;;4998520;28;101862;-73
2022/05/07 06:10:54;;;;;;;0.00;0.00;;;;;;;;;;4995645;28;98555;-73
2022/05/07 06:13:21;;;;;;;0.00;0.00;;;;;;;;;;5013875;28;99201;-73
2022/05/07 06:15:51;;;;;;;0.00;0.00;;;;;;;;;;4995410;28;101615;-73
2022/05/07 06:18:20;;;;;;;0.00;0.00;;;;;;;;;;4995691;28;98462;-73
2022/05/07 06:20:52;;;;;;;0.00;0.00;;;;;;;;;;5012266;28;101387;-73
2022/05/07 06:23:19;;;;;;;0.00;0.00;;;;;;;;;;4995130;28;102206;-73
2022/05/07 06:28:31;;;;;;;0.00;0.00;;;;;;;;;;4995134;28;101331;-74
2022/05/07 06:30:58;;;;;;;0.00;0.00;;;;;;;;;;4998280;28;101643;-73
2022/05/07 06:33:28;;;;;;;0.10;0.10;;;;;;;;;;4994957;28;101394;-74
2022/05/07 06:35:58;;;;;;;0.00;0.00;;;;;;;;;;4995123;28;101431;-74
2022/05/07 06:38:30;;;;;;;0.00;0.00;;;;;;;;;;4995555;28;98533;-74
2022/05/07 06:41:01;;;;;;;0.17;0.17;;;;;;;;;;4995202;28;102284;-74
2022/05/07 06:43:30;;;;;;;0.00;0.00;;;;;;;;;;4994810;28;101375;-74
2022/05/07 06:46:03;;;;;;;0.50;0.15;;;;;;;;;;5010950;28;97691;-73
2022/05/07 06:48:32;;;;;;;0.00;0.00;;;;;;;;;;4994972;28;101400;-74
2022/05/07 06:51:05;;;;;;;0.80;0.55;;;;;;;;;;4994701;28;102295;-74
2022/05/07 06:53:33;;;;;;;0.00;0.00;;;;;;;;;;4998017;28;99343;-74
2022/05/07 06:56:00;;;;;;;0.08;0.08;;;;;;;;;;5012686;28;99338;-74
2022/05/07 06:58:27;;;;;;;0.00;0.00;;;;;;;;;;5012636;28;99022;-75
2022/05/07 07:00:59;;;;;;;0.00;0.00;;;;;;;;;;5012681;28;99626;-71
2022/05/07 07:03:26;;;;;;;0.30;0.30;;;;;;;;;;5012689;28;99605;-74
2022/05/07 07:05:53;;;;;;;0.10;0.10;;;;;;;;;;5012786;28;98413;-71
2022/05/07 07:08:29;;;;;;;0.00;0.00;;;;;;;;;;5012626;28;98629;-72
2022/05/07 07:10:56;;;;;;;0.10;0.10;;;;;;;;;;5012549;28;98376;-70
2022/05/07 07:13:22;;;;;;;0.32;0.32;;;;;;;;;;5013195;28;98406;-71
2022/05/07 07:15:49;;;;;;;0.00;0.00;;;;;;;;;;5015485;28;100152;-71
2022/05/07 07:18:15;;;;;;;0.43;0.43;;;;;;;;;;4995035;28;99238;-71
2022/05/07 07:20:43;;;;;;;0.65;0.40;;;;;;;;;;5012723;28;100082;-71
2022/05/07 07:23:11;;;;;;;0.08;0.08;;;;;;;;;;5012183;28;100048;-73
2022/05/07 07:25:41;;;;;;;0.35;0.35;;;;;;;;;;5012169;28;98420;-71
2022/05/07 07:28:08;;;;;;;0.08;0.08;;;;;;;;;;5012793;28;99335;-73
2022/05/07 07:30:35;;;;;;;0.00;0.00;;;;;;;;;;5012107;28;100087;-72
2022/05/07 07:33:02;;;;;;;0.17;0.17;;;;;;;;;;5012526;28;98359;-73
2022/05/07 07:35:28;;;;;;;0.68;0.60;;;;;;;;;;5013116;28;98958;-73
2022/05/07 07:37:55;;;;;;;0.17;0.17;;;;;;;;;;5017524;28;99192;-73
2022/05/07 07:40:21;;;;;;;0.10;0.10;;;;;;;;;;5016108;28;98837;-72
2022/05/07 07:42:48;;;;;;;0.52;0.52;;;;;;;;;;5014802;28;99862;-72
2022/05/07 07:48:00;;;;;;;0.15;0.15;;;;;;;;;;5015497;28;100221;-73
2022/05/07 07:50:29;;;;;;;0.00;0.00;;;;;;;;;;5015073;28;99454;-74
2022/05/07 07:52:56;;;;;;;0.20;0.20;;;;;;;;;;5015576;28;98371;-71
2022/05/07 07:55:24;;;;;;;0.10;0.10;;;;;;;;;;5015400;28;100705;-72
2022/05/07 07:57:54;;;;;;;0.10;0.10;;;;;;;;;;5015184;28;101211;-73
2022/05/07 08:00:21;;;;;;;0.10;0.10;;;;;;;;;;5001774;28;97545;-73
2022/05/07 08:02:48;;;;;;;0.08;0.08;;;;;;;;;;5015325;28;99800;-73
2022/05/07 08:05:15;;;;;;;0.00;0.00;;;;;;;;;;5015301;28;98484;-73
2022/05/07 08:13:14;;;;;;;0.35;0.30;;;;;;;;;;5015449;28;98465;-73
2022/05/07 08:15:42;;;;;;;0.03;0.03;;;;;;;;;;5015412;28;99016;-74
2022/05/07 08:18:08;;;;;;;0.10;0.10;;;;;;;;;;5014956;28;99274;-74
2022/05/07 08:20:35;;;;;;;0.10;0.10;;;;;;;;;;5018455;28;98491;-73
2022/05/07 08:23:01;;;;;;;0.25;0.25;;;;;;;;;;5014891;28;99429;-73
2022/05/07 08:25:27;;;;;;;0.38;0.38;;;;;;;;;;5015614;28;97560;-73
2022/05/07 08:27:54;;;;;;;0.10;0.10;;;;;;;;;;5015108;28;98704;-73
2022/05/07 08:30:20;;;;;;;0.30;0.30;;;;;;;;;;5014328;28;101094;-73
2022/05/07 08:32:46;;;;;;;1.25;0.85;;;;;;;;;;5014755;28;99122;-73
2022/05/07 08:35:13;;;;;;;0.28;0.28;;;;;;;;;;5014916;28;100959;-73
2022/05/07 08:37:39;;;;;;;0.20;0.20;;;;;;;;;;5014658;28;99350;-74
2022/05/07 08:40:06;;;;;;;0.00;0.00;;;;;;;;;;5015097;28;98408;-74
2022/05/07 08:42:36;;;;;;;0.10;0.10;;;;;;;;;;5014828;28;98946;-74
2022/05/07 08:45:02;;;;;;;0.10;0.10;;;;;;;;;;5017509;28;98323;-73
2022/05/07 08:47:29;;;;;;;0.20;0.20;;;;;;;;;;5011130;28;102567;-73
2022/05/07 08:49:57;;;;;;;4.75;0.47;;;;;;;;;;5014760;28;98527;-73
2022/05/07 08:52:24;;;;;;;0.05;0.05;;;;;;;;;;5015157;28;98500;-73
2022/05/07 08:54:50;;;;;;;0.10;0.10;;;;;;;;;;5014612;28;100679;-73
2022/05/07 08:57:17;;;;;;;1.55;0.90;;;;;;;;;;5013156;28;100801;-73
2022/05/07 08:59:44;;;;;;;0.10;0.10;;;;;;;;;;5014795;28;98402;-73
2022/05/07 09:02:11;;;;;;;2.78;0.85;;;;;;;;;;5014527;28;99331;-78
2022/05/07 09:04:37;;;;;;;0.20;0.17;;;;;;;;;;5017563;28;99472;-74
2022/05/07 09:07:05;;;;;;;0.10;0.10;;;;;;;;;;5014574;28;98667;-76
2022/05/07 09:09:31;;;;;;;0.10;0.10;;;;;;;;;;5014274;28;99546;-73
2022/05/07 09:11:58;;;;;;;0.20;0.20;;;;;;;;;;5014112;28;98377;-73
2022/05/07 09:14:31;;;;;;;0.32;0.32;;;;;;;;;;5015128;28;99363;-73
2022/05/07 09:17:00;;;;;;;0.10;0.10;;;;;;;;;;5014159;28;99778;-74
2022/05/07 09:19:30;;;;;;;0.25;0.25;;;;;;;;;;5014408;28;98390;-73
2022/05/07 09:22:07;;;;;;;0.03;0.03;;;;;;;;;;5013708;28;101169;-74
2022/05/07 09:24:33;;;;;;;0.30;0.20;;;;;;;;;;5013737;28;99983;-73
2022/05/07 09:27:00;;;;;;;0.10;0.10;;;;;;;;;;5017282;28;98413;-73
2022/05/07 09:29:27;;;;;;;2.70;0.50;;;;;;;;;;5013845;28;101092;-73
2022/05/07 09:31:53;;;;;;;0.20;0.20;;;;;;;;;;5013922;28;98419;-73
2022/05/07 09:37:13;;;;;;;0.10;0.10;;;;;;;;;;5013316;28;100172;-73
2022/05/07 09:39:44;;;;;;;0.20;0.20;;;;;;;;;;5014747;28;97689;-75
2022/05/07 09:42:11;;;;;;;0.13;0.13;;;;;;;;;;5014064;28;99013;-74
2022/05/07 09:44:37;;;;;;;0.20;0.20;;;;;;;;;;5013564;28;99744;-75
2022/05/07 09:47:05;;;;;;;0.20;0.20;;;;;;;;;;5013534;28;99089;-74
2022/05/07 09:49:33;;;;;;;0.40;0.40;;;;;;;;;;5016459;28;101104;-73
2022/05/07 09:52:02;;;;;;;0.10;0.10;;;;;;;;;;5013846;28;98447;-73
2022/05/07 09:57:30;;;;;;;0.40;0.40;;;;;;;;;;5013008;28;100093;-72
2022/05/07 10:00:00;;;;;;;0.22;0.22;;;;;;;;;;5012713;28;98424;-73
2022/05/07 10:02:40;;;;;;;0.60;0.60;;;;;;;;;;5011775;28;99010;-73
2022/05/07 10:05:17;;;;;;;0.52;0.52;;;;;;;;;;5013873;28;99128;-73
2022/05/07 10:08:08;;;;;;;0.30;0.30;;;;;;;;;;5013496;28;98378;-72
2022/05/07 10:10:36;;;;;;;0.50;0.50;;;;;;;;;;5016166;28;100640;-72
2022/05/07 10:13:05;;;;;;;0.28;0.28;;;;;;;;;;5013101;28;99196;-73
2022/05/07 10:15:32;;;;;;;0.65;0.65;;;;;;;;;;4996154;28;100584;-73
2022/05/07 10:18:02;;;;;;;0.20;0.20;;;;;;;;;;5012995;28;99977;-72
2022/05/07 10:20:40;;;;;;;0.35;0.35;;;;;;;;;;5013180;28;98400;-74
2022/05/07 10:23:08;;;;;;;0.47;0.47;;;;;;;;;;5013447;28;99221;-73
2022/05/07 10:25:35;;;;;;;0.28;0.28;;;;;;;;;;5012933;28;99150;-74
2022/05/07 10:28:12;;;;;;;0.35;0.35;;;;;;;;;;5013410;28;98334;-74
2022/05/07 10:30:45;;;;;;;0.70;0.70;;;;;;;;;;5013885;28;98988;-74
2022/05/07 10:33:12;;;;;;;0.82;0.55;;;;;;;;;;5015578;28;100487;-74
2022/05/07 10:35:48;;;;;;;0.73;0.73;;;;;;;;;;5013408;28;99051;-74
2022/05/07 10:38:24;;;;;;;0.85;0.85;;;;;;;;;;5012568;28;99746;-73
2022/05/07 10:40:51;;;;;;;0.10;0.10;;;;;;;;;;5013040;28;100591;-74
2022/05/07 10:43:24;;;;;;;0.63;0.63;;;;;;;;;;5012906;28;99322;-74
2022/05/07 10:46:00;;;;;;;0.45;0.45;;;;;;;;;;4994686;28;99707;-74
2022/05/07 10:48:26;;;;;;;0.20;0.20;;;;;;;;;;5012549;28;98675;-75
2022/05/07 10:51:02;;;;;;;0.40;0.40;;;;;;;;;;4998267;28;100193;-76
2022/05/07 10:53:37;;;;;;;0.30;0.30;;;;;;;;;;5015930;28;101733;-78
2022/05/07 10:56:16;;;;;;;0.30;0.30;;;;;;;;;;5016576;28;97703;-76
2022/05/07 10:58:46;;;;;;;0.55;0.55;;;;;;;;;;5012546;28;99168;-74
2022/05/07 11:01:12;;;;;;;0.45;0.45;;;;;;;;;;5012798;28;98228;-73
2022/05/07 11:03:40;;;;;;;0.70;0.70;;;;;;;;;;5011757;28;100194;-73
2022/05/07 11:06:06;;;;;;;0.50;0.50;;;;;;;;;;5012202;28;100438;-74
2022/05/07 11:08:35;;;;;;;0.65;0.65;;;;;;;;;;5012613;28;99338;-73
2022/05/07 11:11:11;;;;;;;0.68;0.68;;;;;;;;;;4995896;28;99012;-74
2022/05/07 11:13:43;;;;;;;0.30;0.30;;;;;;;;;;5016072;28;99862;-74
2022/05/07 11:16:10;;;;;;;0.43;0.43;;;;;;;;;;5016444;28;98354;-74
2022/05/07 11:18:40;;;;;;;0.30;0.30;;;;;;;;;;5001708;28;99767;-72
2022/05/07 11:21:08;;;;;;;0.20;0.20;;;;;;;;;;4998698;28;97716;-81
2022/05/07 11:23:36;;;;;;;1.25;0.63;;;;;;;;;;5016312;28;98283;-75
2022/05/07 11:26:12;;;;;;;0.45;0.45;;;;;;;;;;5015678;28;100299;-75
2022/05/07 11:28:40;;;;;;;0.65;0.65;;;;;;;;;;5015837;28;99125;-75
2022/05/07 11:31:07;;;;;;;0.55;0.55;;;;;;;;;;5015920;28;100516;-74
2022/05/07 11:33:34;;;;;;;1.27;0.73;;;;;;;;;;5015327;28;99680;-78
2022/05/07 11:36:07;;;;;;;0.57;0.50;;;;;;;;;;5016110;28;98369;-78
2022/05/07 11:38:36;;;;;;;0.40;0.40;;;;;;;;;;5016167;28;99498;-76
2022/05/07 11:41:10;;;;;;;0.52;0.52;;;;;;;;;;5001195;28;100182;-77
2022/05/07 11:46:21;;;;;;;1.08;0.90;;;;;;;;;;5015929;28;99278;-76
2022/05/07 11:48:48;;;;;;;0.43;0.43;;;;;;;;;;5016479;28;98418;-76
2022/05/07 11:51:22;;;;;;;0.57;0.57;;;;;;;;;;5016011;28;99922;-77
2022/05/07 11:53:48;;;;;;;0.20;0.20;;;;;;;;;;5015101;28;100010;-76
2022/05/07 11:56:14;;;;;;;0.22;0.22;;;;;;;;;;5015882;28;98399;-77
2022/05/07 11:58:46;;;;;;;1.13;0.68;;;;;;;;;;5015401;28;99652;-76
2022/05/07 12:01:22;;;;;;;0.20;0.20;;;;;;;;;;5015338;28;99273;-76
2022/05/07 12:03:49;;;;;;;0.50;0.50;;;;;;;;;;5019344;28;98343;-76
2022/05/07 12:06:24;;;;;;;0.22;0.22;;;;;;;;;;5015314;28;99721;-78
2022/05/07 12:08:51;;;;;;;0.52;0.52;;;;;;;;;;5015598;28;98373;-75
2022/05/07 12:11:17;;;;;;;1.23;1.10;;;;;;;;;;5016112;28;98743;-76
2022/05/07 12:13:44;;;;;;;0.52;0.52;;;;;;;;;;5014875;28;100910;-77
2022/05/07 12:18:56;;;;;;;0.45;0.40;;;;;;;;;;5015007;28;99419;-75
2022/05/07 12:29:48;;;;;;;0.17;0.17;;;;;;;;;;5015006;28;99803;-77
2022/05/07 12:29:52;;;;;;;0.20;0.20;;;;;;;;;;5015296;28;98302;-76
2022/05/07 12:32:24;;;;;;;0.28;0.28;;;;;;;;;;5014993;28;98703;-75
2022/05/07 12:34:51;;;;;;;0.30;0.30;;;;;;;;;;5014736;28;99651;-73
2022/05/07 12:37:18;;;;;;;0.20;0.20;;;;;;;;;;5015658;28;97667;-74
2022/05/07 12:39:46;;;;;;;0.32;0.32;;;;;;;;;;5015105;28;99088;-77
2022/05/07 12:42:12;;;;;;;0.63;0.63;;;;;;;;;;5014771;28;99000;-77
2022/05/07 12:44:42;;;;;;;0.30;0.30;;;;;;;;;;5013928;28;99174;-77
2022/05/07 12:47:09;;;;;;;0.10;0.10;;;;;;;;;;5017918;28;99548;-76
2022/05/07 12:49:35;;;;;;;0.68;0.38;;;;;;;;;;5014842;28;98402;-76
2022/05/07 12:52:07;;;;;;;0.35;0.35;;;;;;;;;;5014839;28;99871;-76
2022/05/07 12:54:34;;;;;;;0.15;0.15;;;;;;;;;;5014454;28;99709;-76
2022/05/07 12:57:04;;;;;;;0.33;0.33;;;;;;;;;;4988762;28;99218;-76
2022/05/07 12:59:41;;;;;;;0.30;0.30;;;;;;;;;;5002414;28;98628;-76
2022/05/07 13:02:08;;;;;;;0.28;0.28;;;;;;;;;;4979746;28;98734;-76
2022/05/07 13:04:35;;;;;;;0.20;0.20;;;;;;;;;;5005237;28;98722;-75
2022/05/07 13:07:02;;;;;;;0.15;0.15;;;;;;;;;;5004205;28;99367;-76
2022/05/07 13:09:29;;;;;;;0.28;0.28;;;;;;;;;;5002523;28;100522;-76
2022/05/07 13:12:18;;;;;;;12.80;0.90;;;;;;;;;;4998539;28;100018;-75
2022/05/07 13:14:51;;;;;;;0.43;0.43;;;;;;;;;;4998112;28;99892;-76
2022/05/07 13:17:17;;;;;;;1.15;0.57;;;;;;;;;;5005398;28;98527;-76
2022/05/07 13:19:44;;;;;;;0.88;0.65;;;;;;;;;;5001134;28;99543;-75
2022/05/07 13:22:13;;;;;;;0.20;0.20;;;;;;;;;;5002797;28;99131;-75
2022/05/07 13:24:41;;;;;;;0.32;0.32;;;;;;;;;;5004325;28;98521;-77
2022/05/07 13:27:07;;;;;;;0.10;0.10;;;;;;;;;;5004570;28;98885;-75
2022/05/07 13:29:34;;;;;;;0.50;0.50;;;;;;;;;;5004739;28;99574;-75
2022/05/07 13:32:00;;;;;;;0.17;0.17;;;;;;;;;;5005795;28;99098;-74
2022/05/07 13:34:27;;;;;;;0.55;0.55;;;;;;;;;;5004393;28;100223;-75
2022/05/07 13:36:57;;;;;;;0.35;0.35;;;;;;;;;;5005632;28;98284;-76
2022/05/07 13:39:23;;;;;;;0.68;0.68;;;;;;;;;;5003753;28;99339;-77
2022/05/07 13:41:50;;;;;;;0.85;0.40;;;;;;;;;;5002324;28;99748;-77
2022/05/07 13:44:16;;;;;;;0.40;0.40;;;;;;;;;;5003926;28;98869;-73
2022/05/07 13:46:43;;;;;;;0.10;0.10;;;;;;;;;;5003415;28;100889;-74
2022/05/07 13:49:11;;;;;;;0.20;0.20;;;;;;;;;;4983889;28;100520;-75
2022/05/07 13:51:37;;;;;;;0.73;0.63;;;;;;;;;;5005242;28;97590;-75
2022/05/07 13:54:03;;;;;;;0.38;0.38;;;;;;;;;;5004788;28;98735;-76
2022/05/07 13:56:31;;;;;;;0.10;0.10;;;;;;;;;;5005214;28;98497;-78
2022/05/07 13:58:57;;;;;;;0.30;0.30;;;;;;;;;;5001530;28;99512;-78
2022/05/07 14:01:24;;;;;;;0.13;0.13;;;;;;;;;;4977369;28;100985;-78
2022/05/07 14:03:50;;;;;;;0.40;0.35;;;;;;;;;;5003148;28;98354;-73
2022/05/07 14:06:19;;;;;;;0.30;0.30;;;;;;;;;;5002357;28;99755;-72
2022/05/07 14:08:46;;;;;;;0.47;0.40;;;;;;;;;;5003484;28;99444;-73
2022/05/07 14:11:14;;;;;;;0.52;0.52;;;;;;;;;;5002777;28;98352;-71
2022/05/07 14:13:41;;;;;;;0.20;0.20;;;;;;;;;;5001769;28;99657;-74
2022/05/07 14:16:08;;;;;;;0.38;0.38;;;;;;;;;;5004902;28;98362;-73
2022/05/07 14:18:35;;;;;;;0.15;0.15;;;;;;;;;;5003938;28;98872;-73
2022/05/07 14:21:02;;;;;;;0.32;0.32;;;;;;;;;;5001293;28;100905;-74
2022/05/07 14:23:28;;;;;;;0.40;0.40;;;;;;;;;;5002931;28;99825;-77
2022/05/07 14:25:57;;;;;;;0.50;0.50;;;;;;;;;;5002709;28;100443;-76
2022/05/07 14:28:23;;;;;;;0.30;0.30;;;;;;;;;;5001867;28;99757;-77
2022/05/07 14:30:50;;;;;;;0.30;0.30;;;;;;;;;;4999567;28;98419;-78
2022/05/07 14:33:16;;;;;;;0.40;0.40;;;;;;;;;;5000499;28;99379;-75
2022/05/07 14:35:43;;;;;;;1.48;0.77;;;;;;;;;;5000095;28;99067;-76
2022/05/07 14:38:10;;;;;;;0.40;0.40;;;;;;;;;;5004166;28;99168;-77
2022/05/07 14:40:38;;;;;;;0.40;0.40;;;;;;;;;;5000345;28;98977;-78
2022/05/07 14:43:04;;;;;;;0.10;0.10;;;;;;;;;;5002115;28;99319;-77
2022/05/07 14:45:31;;;;;;;0.40;0.40;;;;;;;;;;5001914;28;98755;-77
2022/05/07 14:47:59;;;;;;;0.10;0.10;;;;;;;;;;4998207;28;102055;-80
2022/05/07 14:50:29;;;;;;;1.27;0.52;;;;;;;;;;4983509;28;98657;-77
2022/05/07 14:53:31;;;;;;;1.15;0.52;;;;;;;;;;5000379;28;98927;-81
2022/05/07 14:56:02;;;;;;;0.40;0.40;;;;;;;;;;4993554;28;99167;-83
2022/05/07 14:59:27;;;;;;;0.20;0.20;;;;;;;;;;4927060;28;98680;-82
2022/05/07 15:01:53;;;;;;;0.80;0.77;;;;;;;;;;4939372;28;99412;-80
2022/05/07 15:04:26;;;;;;;0.40;0.40;;;;;;;;;;4940206;28;98383;-81
2022/05/07 15:06:52;;;;;;;0.08;0.08;;;;;;;;;;4933117;28;101514;-79
2022/05/07 15:15:36;;;;;;;0.20;0.20;;;;;;;;;;4934401;28;101424;-77
2022/05/07 15:18:03;;;;;;;0.10;0.10;;;;;;;;;;4941505;28;100015;-78
2022/05/07 15:20:35;;;;;;;0.25;0.25;;;;;;;;;;4937995;28;98478;-84
2022/05/07 15:23:03;;;;;;;0.10;0.10;;;;;;;;;;4926265;28;101814;-81
2022/05/07 15:25:34;;;;;;;0.40;0.40;;;;;;;;;;4923261;28;98535;-76
2022/05/07 15:28:04;;;;;;;0.20;0.20;;;;;;;;;;4946177;28;100162;-82
2022/05/07 15:30:30;;;;;;;0.40;0.40;;;;;;;;;;4984081;28;99235;-75